Hauptseite
METAR-TAF:

METAR-TAF

Flughäfen :

Flughafen Berlin Brandenburg

Berlin, Deutschland

Breite: 52-23N, Länge: 013-31E, Höhe: 47 m

Beobachtung

Neuester Wetterbericht von vor 43 Minuten, um 00:20 UTC
Wind 1 kt aus Nord/Nordost
Temperatur -4°C
Luftfeuchtigkeit 86%
Luftdruck 1039 hPa
Sichtweite 10 km oder mehr
keine Wolken unter 1500 m und keine Kumulonimbus oder Gewitterwolken

METAR: EDDB 050020Z AUTO 03001KT CAVOK M04/M06 Q1039 NOSIG

Zeit: 02:03 (01:03 UTC)

Prognose

Neuester Wetterbericht von vor 2 Stunden und 3 Minuten, um 23:00 UTC
Gültige Prognose vom 05 um 00 UTC bis 05 um 24 UTC
Wind 3 kt aus Nord/Nordost
Sichtweite 10 km oder mehr
keine Wolken unter 1500 m und keine Kumulonimbus oder Gewitterwolken
Übergehend zu
vom 05 um 03 UTC bis 05 um 06 UTC
Wind 5 kt aus Süd/Südost

TAF: EDDB 042300Z 0500/0524 02003KT CAVOK BECMG 0503/0506 15005KT

Wetterbeobachtungen und Prognosen von mehr als 4000 Flughäfen (METAR und TAF Bericht).

Die verfügbaren Stationen werden durch gelbe und rote Markierungen auf der Karte dargestellt.

Führen Sie die Maus auf sie, um den Namen der Station zu sehen.

Darauf klicken, um die Beobachtung von Wetterbeobachtungen und Prognosen zu sehen.

Um die Karte zu ändern : klicken Sie auf den grünen Tasten mit einem schwarzen Kreuz Zum Vergrößern, auf den grünen Button mit einem Gedankenstrich zu verkleinern, oder auf die grünen Pfeile für benachbarte Karten.


METAR-TAF: